sensor_id;sensor_type;location;lat;lon;timestamp;temperature;humidity
43894;DHT22;29556;50.846;4.442;2022-08-25T00:00:19;22.20;80.00
43894;DHT22;29556;50.846;4.442;2022-08-25T00:02:56;22.20;80.00
43894;DHT22;29556;50.846;4.442;2022-08-25T00:05:47;22.10;79.90
43894;DHT22;29556;50.846;4.442;2022-08-25T00:08:42;22.10;80.40
43894;DHT22;29556;50.846;4.442;2022-08-25T00:11:21;21.90;80.40
43894;DHT22;29556;50.846;4.442;2022-08-25T00:13:54;22.00;80.50
43894;DHT22;29556;50.846;4.442;2022-08-25T00:16:23;22.00;80.70
43894;DHT22;29556;50.846;4.442;2022-08-25T00:18:54;22.00;80.80
43894;DHT22;29556;50.846;4.442;2022-08-25T00:21:25;21.90;80.70
43894;DHT22;29556;50.846;4.442;2022-08-25T00:24:02;21.90;80.90
43894;DHT22;29556;50.846;4.442;2022-08-25T00:26:56;21.80;80.70
43894;DHT22;29556;50.846;4.442;2022-08-25T00:29:37;21.90;80.90
43894;DHT22;29556;50.846;4.442;2022-08-25T00:32:31;21.90;80.90
43894;DHT22;29556;50.846;4.442;2022-08-25T00:35:24;21.90;81.10
43894;DHT22;29556;50.846;4.442;2022-08-25T00:38:31;21.80;81.20
43894;DHT22;29556;50.846;4.442;2022-08-25T00:41:25;21.80;81.30
43894;DHT22;29556;50.846;4.442;2022-08-25T00:44:02;21.70;81.10
43894;DHT22;29556;50.846;4.442;2022-08-25T00:47:21;21.80;81.30
43894;DHT22;29556;50.846;4.442;2022-08-25T00:50:29;21.80;81.40
43894;DHT22;29556;50.846;4.442;2022-08-25T00:53:10;21.70;81.50
43894;DHT22;29556;50.846;4.442;2022-08-25T00:56:05;21.70;81.70
43894;DHT22;29556;50.846;4.442;2022-08-25T00:58:50;21.70;81.60
43894;DHT22;29556;50.846;4.442;2022-08-25T01:01:37;21.70;81.80
43894;DHT22;29556;50.846;4.442;2022-08-25T01:04:14;21.70;81.80
43894;DHT22;29556;50.846;4.442;2022-08-25T01:07:34;21.60;81.70
43894;DHT22;29556;50.846;4.442;2022-08-25T01:10:53;21.60;82.00
43894;DHT22;29556;50.846;4.442;2022-08-25T01:14:16;21.50;82.00
43894;DHT22;29556;50.846;4.442;2022-08-25T01:18:03;21.50;82.20
43894;DHT22;29556;50.846;4.442;2022-08-25T01:21:04;21.40;82.20
43894;DHT22;29556;50.846;4.442;2022-08-25T01:24:19;21.40;82.30
43894;DHT22;29556;50.846;4.442;2022-08-25T01:27:51;21.50;82.30
43894;DHT22;29556;50.846;4.442;2022-08-25T01:30:25;21.40;82.40
43894;DHT22;29556;50.846;4.442;2022-08-25T01:36:51;21.40;82.50
43894;DHT22;29556;50.846;4.442;2022-08-25T01:40:12;21.40;82.70
43894;DHT22;29556;50.846;4.442;2022-08-25T01:43:35;21.30;82.60
43894;DHT22;29556;50.846;4.442;2022-08-25T01:46:04;21.30;82.70
43894;DHT22;29556;50.846;4.442;2022-08-25T01:49:37;21.30;82.90
43894;DHT22;29556;50.846;4.442;2022-08-25T01:53:03;21.30;82.70
43894;DHT22;29556;50.846;4.442;2022-08-25T01:56:07;21.30;82.80
43894;DHT22;29556;50.846;4.442;2022-08-25T01:58:48;21.30;83.00
43894;DHT22;29556;50.846;4.442;2022-08-25T02:01:37;21.20;83.20
43894;DHT22;29556;50.846;4.442;2022-08-25T02:04:35;21.20;83.20
43894;DHT22;29556;50.846;4.442;2022-08-25T02:38:26;21.00;83.10
43894;DHT22;29556;50.846;4.442;2022-08-25T02:40:54;21.00;83.20
43894;DHT22;29556;50.846;4.442;2022-08-25T02:43:21;21.00;83.20
43894;DHT22;29556;50.846;4.442;2022-08-25T02:45:51;21.00;83.40
43894;DHT22;29556;50.846;4.442;2022-08-25T02:48:36;21.00;83.40
43894;DHT22;29556;50.846;4.442;2022-08-25T02:51:07;20.90;83.20
43894;DHT22;29556;50.846;4.442;2022-08-25T02:56:10;20.90;83.40
43894;DHT22;29556;50.846;4.442;2022-08-25T02:58:38;20.80;83.60
43894;DHT22;29556;50.846;4.442;2022-08-25T03:01:05;20.80;83.80
43894;DHT22;29556;50.846;4.442;2022-08-25T03:03:34;20.80;83.80
43894;DHT22;29556;50.846;4.442;2022-08-25T03:06:06;20.90;83.80
43894;DHT22;29556;50.846;4.442;2022-08-25T03:08:36;20.80;83.60
43894;DHT22;29556;50.846;4.442;2022-08-25T03:11:05;20.80;83.80
43894;DHT22;29556;50.846;4.442;2022-08-25T03:13:31;20.80;83.80
43894;DHT22;29556;50.846;4.442;2022-08-25T03:15:58;20.70;83.80
43894;DHT22;29556;50.846;4.442;2022-08-25T03:18:27;20.70;83.70
43894;DHT22;29556;50.846;4.442;2022-08-25T03:20:53;20.70;83.80
43894;DHT22;29556;50.846;4.442;2022-08-25T03:23:22;20.70;83.80
43894;DHT22;29556;50.846;4.442;2022-08-25T03:25:54;20.70;83.80
43894;DHT22;29556;50.846;4.442;2022-08-25T03:28:43;20.70;83.90
43894;DHT22;29556;50.846;4.442;2022-08-25T03:31:12;20.70;84.10
43894;DHT22;29556;50.846;4.442;2022-08-25T03:33:46;20.60;84.00
43894;DHT22;29556;50.846;4.442;2022-08-25T03:36:34;20.70;83.80
43894;DHT22;29556;50.846;4.442;2022-08-25T03:39:06;20.60;83.90
43894;DHT22;29556;50.846;4.442;2022-08-25T03:41:34;20.60;84.00
43894;DHT22;29556;50.846;4.442;2022-08-25T03:44:05;20.60;84.20
43894;DHT22;29556;50.846;4.442;2022-08-25T03:46:54;20.60;84.10
43894;DHT22;29556;50.846;4.442;2022-08-25T03:49:35;20.50;84.00
43894;DHT22;29556;50.846;4.442;2022-08-25T03:52:05;20.60;84.10
43894;DHT22;29556;50.846;4.442;2022-08-25T03:54:44;20.60;83.80
43894;DHT22;29556;50.846;4.442;2022-08-25T03:57:30;20.60;83.80
43894;DHT22;29556;50.846;4.442;2022-08-25T04:00:05;20.50;83.80
43894;DHT22;29556;50.846;4.442;2022-08-25T04:03:12;20.60;84.00
43894;DHT22;29556;50.846;4.442;2022-08-25T04:05:45;20.40;84.00
43894;DHT22;29556;50.846;4.442;2022-08-25T04:08:59;20.40;84.10
43894;DHT22;29556;50.846;4.442;2022-08-25T04:11:36;20.40;84.20
43894;DHT22;29556;50.846;4.442;2022-08-25T04:14:40;20.40;84.00
43894;DHT22;29556;50.846;4.442;2022-08-25T04:17:50;20.40;84.10
43894;DHT22;29556;50.846;4.442;2022-08-25T04:20:42;20.40;84.10
43894;DHT22;29556;50.846;4.442;2022-08-25T04:23:34;20.40;85.00
43894;DHT22;29556;50.846;4.442;2022-08-25T04:26:27;20.30;84.40
43894;DHT22;29556;50.846;4.442;2022-08-25T04:29:22;20.30;84.40
43894;DHT22;29556;50.846;4.442;2022-08-25T04:32:21;20.30;84.50
43894;DHT22;29556;50.846;4.442;2022-08-25T04:35:01;20.30;84.60
43894;DHT22;29556;50.846;4.442;2022-08-25T04:37:35;20.30;84.70
43894;DHT22;29556;50.846;4.442;2022-08-25T04:40:11;20.30;84.90
43894;DHT22;29556;50.846;4.442;2022-08-25T04:43:01;20.30;84.80
43894;DHT22;29556;50.846;4.442;2022-08-25T04:45:41;20.30;84.80
43894;DHT22;29556;50.846;4.442;2022-08-25T04:51:51;20.30;84.70
43894;DHT22;29556;50.846;4.442;2022-08-25T04:54:46;20.10;84.70
43894;DHT22;29556;50.846;4.442;2022-08-25T04:57:21;20.30;84.80
43894;DHT22;29556;50.846;4.442;2022-08-25T05:00:33;20.30;84.90
43894;DHT22;29556;50.846;4.442;2022-08-25T05:03:09;20.30;84.90
43894;DHT22;29556;50.846;4.442;2022-08-25T05:06:28;20.30;84.90
43894;DHT22;29556;50.846;4.442;2022-08-25T05:09:20;20.30;84.80
43894;DHT22;29556;50.846;4.442;2022-08-25T05:12:04;20.30;85.00
43894;DHT22;29556;50.846;4.442;2022-08-25T05:14:59;20.20;84.90
43894;DHT22;29556;50.846;4.442;2022-08-25T05:21:20;20.30;84.60
43894;DHT22;29556;50.846;4.442;2022-08-25T05:23:53;20.30;84.70
43894;DHT22;29556;50.846;4.442;2022-08-25T05:26:24;20.50;84.80
43894;DHT22;29556;50.846;4.442;2022-08-25T05:28:53;20.30;84.70
43894;DHT22;29556;50.846;4.442;2022-08-25T05:31:21;20.40;84.80
43894;DHT22;29556;50.846;4.442;2022-08-25T05:33:47;20.40;84.70
43894;DHT22;29556;50.846;4.442;2022-08-25T05:36:17;20.50;85.00
43894;DHT22;29556;50.846;4.442;2022-08-25T05:38:49;20.50;84.90
43894;DHT22;29556;50.846;4.442;2022-08-25T05:41:24;20.60;84.90
43894;DHT22;29556;50.846;4.442;2022-08-25T05:43:50;20.60;84.80
43894;DHT22;29556;50.846;4.442;2022-08-25T05:46:22;20.60;84.90
43894;DHT22;29556;50.846;4.442;2022-08-25T05:48:50;20.70;85.00
43894;DHT22;29556;50.846;4.442;2022-08-25T05:51:17;20.70;85.00
43894;DHT22;29556;50.846;4.442;2022-08-25T05:53:47;20.80;85.00
43894;DHT22;29556;50.846;4.442;2022-08-25T05:56:14;20.80;85.00
43894;DHT22;29556;50.846;4.442;2022-08-25T05:59:17;20.90;85.00
43894;DHT22;29556;50.846;4.442;2022-08-25T06:02:20;21.00;84.80
43894;DHT22;29556;50.846;4.442;2022-08-25T06:08:23;21.10;84.90
43894;DHT22;29556;50.846;4.442;2022-08-25T06:11:03;21.20;85.30
43894;DHT22;29556;50.846;4.442;2022-08-25T06:13:31;21.20;85.30
43894;DHT22;29556;50.846;4.442;2022-08-25T06:16:06;21.30;85.30
43894;DHT22;29556;50.846;4.442;2022-08-25T06:18:45;21.40;85.20
43894;DHT22;29556;50.846;4.442;2022-08-25T06:21:14;21.50;85.40
43894;DHT22;29556;50.846;4.442;2022-08-25T06:23:51;21.50;85.10
43894;DHT22;29556;50.846;4.442;2022-08-25T06:26:22;21.60;85.20
43894;DHT22;29556;50.846;4.442;2022-08-25T06:28:57;21.60;85.00
43894;DHT22;29556;50.846;4.442;2022-08-25T06:31:31;21.60;84.80
43894;DHT22;29556;50.846;4.442;2022-08-25T06:34:02;21.60;84.70
43894;DHT22;29556;50.846;4.442;2022-08-25T06:36:49;21.70;84.50
43894;DHT22;29556;50.846;4.442;2022-08-25T06:39:22;21.80;84.70
43894;DHT22;29556;50.846;4.442;2022-08-25T06:41:54;21.70;84.40
43894;DHT22;29556;50.846;4.442;2022-08-25T06:44:24;21.80;84.50
43894;DHT22;29556;50.846;4.442;2022-08-25T06:46:58;22.00;84.40
43894;DHT22;29556;50.846;4.442;2022-08-25T06:49:29;22.00;84.40
43894;DHT22;29556;50.846;4.442;2022-08-25T06:52:01;22.10;84.40
43894;DHT22;29556;50.846;4.442;2022-08-25T06:54:45;22.10;84.20
43894;DHT22;29556;50.846;4.442;2022-08-25T06:57:28;22.20;84.10
43894;DHT22;29556;50.846;4.442;2022-08-25T07:00:03;22.30;84.20
43894;DHT22;29556;50.846;4.442;2022-08-25T07:05:58;22.40;83.70
43894;DHT22;29556;50.846;4.442;2022-08-25T07:08:34;22.60;83.60
43894;DHT22;29556;50.846;4.442;2022-08-25T07:11:10;22.60;84.10
43894;DHT22;29556;50.846;4.442;2022-08-25T07:13:44;22.80;83.10
43894;DHT22;29556;50.846;4.442;2022-08-25T07:16:13;22.80;82.80
43894;DHT22;29556;50.846;4.442;2022-08-25T07:18:49;22.90;82.60
43894;DHT22;29556;50.846;4.442;2022-08-25T07:21:24;22.90;81.90
43894;DHT22;29556;50.846;4.442;2022-08-25T07:23:58;23.00;81.40
43894;DHT22;29556;50.846;4.442;2022-08-25T07:34:26;23.10;80.80
43894;DHT22;29556;50.846;4.442;2022-08-25T07:37:13;23.20;80.80
43894;DHT22;29556;50.846;4.442;2022-08-25T07:39:49;23.20;80.80
43894;DHT22;29556;50.846;4.442;2022-08-25T07:42:16;23.20;80.50
43894;DHT22;29556;50.846;4.442;2022-08-25T07:44:42;23.20;80.50
43894;DHT22;29556;50.846;4.442;2022-08-25T07:47:08;23.30;80.20
43894;DHT22;29556;50.846;4.442;2022-08-25T07:49:34;23.30;79.80
43894;DHT22;29556;50.846;4.442;2022-08-25T07:52:00;23.40;78.60
43894;DHT22;29556;50.846;4.442;2022-08-25T07:54:26;23.40;77.90
43894;DHT22;29556;50.846;4.442;2022-08-25T07:56:52;23.50;78.40
43894;DHT22;29556;50.846;4.442;2022-08-25T07:59:19;23.60;78.20
43894;DHT22;29556;50.846;4.442;2022-08-25T08:01:45;23.60;78.00
43894;DHT22;29556;50.846;4.442;2022-08-25T08:04:12;23.70;77.80
43894;DHT22;29556;50.846;4.442;2022-08-25T08:06:38;23.70;77.20
43894;DHT22;29556;50.846;4.442;2022-08-25T08:09:11;23.70;77.00
43894;DHT22;29556;50.846;4.442;2022-08-25T08:11:37;23.70;77.00
43894;DHT22;29556;50.846;4.442;2022-08-25T08:14:07;23.80;76.70
43894;DHT22;29556;50.846;4.442;2022-08-25T08:16:33;23.80;76.00
43894;DHT22;29556;50.846;4.442;2022-08-25T08:19:07;23.80;75.70
43894;DHT22;29556;50.846;4.442;2022-08-25T08:21:37;23.80;75.30
43894;DHT22;29556;50.846;4.442;2022-08-25T08:24:07;23.90;75.50
43894;DHT22;29556;50.846;4.442;2022-08-25T08:26:34;23.90;75.20
43894;DHT22;29556;50.846;4.442;2022-08-25T08:29:00;23.90;75.00
43894;DHT22;29556;50.846;4.442;2022-08-25T08:31:27;24.00;74.80
43894;DHT22;29556;50.846;4.442;2022-08-25T08:39:19;24.10;74.20
43894;DHT22;29556;50.846;4.442;2022-08-25T08:50:15;24.20;72.80
43894;DHT22;29556;50.846;4.442;2022-08-25T08:52:45;24.30;72.20
43894;DHT22;29556;50.846;4.442;2022-08-25T08:58:13;24.30;71.30
43894;DHT22;29556;50.846;4.442;2022-08-25T09:01:00;24.30;71.60
43894;DHT22;29556;50.846;4.442;2022-08-25T09:03:43;24.40;71.10
43894;DHT22;29556;50.846;4.442;2022-08-25T09:06:35;24.40;69.70
43894;DHT22;29556;50.846;4.442;2022-08-25T09:09:11;24.60;69.20
43894;DHT22;29556;50.846;4.442;2022-08-25T09:12:03;24.50;68.00
43894;DHT22;29556;50.846;4.442;2022-08-25T09:24:12;24.80;68.50
43894;DHT22;29556;50.846;4.442;2022-08-25T09:27:03;24.80;68.10
43894;DHT22;29556;50.846;4.442;2022-08-25T09:29:58;24.80;66.80
43894;DHT22;29556;50.846;4.442;2022-08-25T09:32:28;25.00;66.70
43894;DHT22;29556;50.846;4.442;2022-08-25T09:34:55;25.00;66.40
43894;DHT22;29556;50.846;4.442;2022-08-25T09:37:27;25.10;65.40
43894;DHT22;29556;50.846;4.442;2022-08-25T09:39:54;25.10;64.90
43894;DHT22;29556;50.846;4.442;2022-08-25T09:42:20;25.20;65.20
43894;DHT22;29556;50.846;4.442;2022-08-25T09:44:47;25.20;65.00
43894;DHT22;29556;50.846;4.442;2022-08-25T09:47:25;25.20;64.40
43894;DHT22;29556;50.846;4.442;2022-08-25T09:50:00;25.30;62.80
43894;DHT22;29556;50.846;4.442;2022-08-25T09:52:39;25.30;62.40
43894;DHT22;29556;50.846;4.442;2022-08-25T09:57:53;25.40;62.60
43894;DHT22;29556;50.846;4.442;2022-08-25T10:00:32;25.40;62.60
43894;DHT22;29556;50.846;4.442;2022-08-25T10:03:10;25.50;62.10
43894;DHT22;29556;50.846;4.442;2022-08-25T10:06:00;25.60;61.50
43894;DHT22;29556;50.846;4.442;2022-08-25T10:08:30;25.60;59.10
43894;DHT22;29556;50.846;4.442;2022-08-25T10:11:07;25.60;59.40
43894;DHT22;29556;50.846;4.442;2022-08-25T10:14:00;25.70;56.50
43894;DHT22;29556;50.846;4.442;2022-08-25T10:16:34;25.70;58.10
43894;DHT22;29556;50.846;4.442;2022-08-25T10:19:25;25.70;58.50
43894;DHT22;29556;50.846;4.442;2022-08-25T10:22:23;25.80;58.00
43894;DHT22;29556;50.846;4.442;2022-08-25T10:25:04;25.90;58.50
43894;DHT22;29556;50.846;4.442;2022-08-25T10:33:40;25.90;56.20
43894;DHT22;29556;50.846;4.442;2022-08-25T10:36:20;25.90;56.40
43894;DHT22;29556;50.846;4.442;2022-08-25T10:39:13;26.10;57.00
43894;DHT22;29556;50.846;4.442;2022-08-25T10:47:07;26.30;53.50
43894;DHT22;29556;50.846;4.442;2022-08-25T10:49:59;26.40;54.40
43894;DHT22;29556;50.846;4.442;2022-08-25T10:52:48;26.50;54.10
43894;DHT22;29556;50.846;4.442;2022-08-25T10:55:45;26.60;53.50
43894;DHT22;29556;50.846;4.442;2022-08-25T11:01:39;26.60;54.70
43894;DHT22;29556;50.846;4.442;2022-08-25T11:07:36;26.60;55.00
43894;DHT22;29556;50.846;4.442;2022-08-25T11:13:59;26.50;55.50
43894;DHT22;29556;50.846;4.442;2022-08-25T11:20:54;26.40;55.20
43894;DHT22;29556;50.846;4.442;2022-08-25T11:27:20;26.30;55.90
43894;DHT22;29556;50.846;4.442;2022-08-25T11:30:27;26.30;55.50
43894;DHT22;29556;50.846;4.442;2022-08-25T11:33:57;26.30;56.20
43894;DHT22;29556;50.846;4.442;2022-08-25T12:06:22;26.40;55.50
43894;DHT22;29556;50.846;4.442;2022-08-25T12:25:12;26.50;54.40
43894;DHT22;29556;50.846;4.442;2022-08-25T12:34:07;27.20;52.20
43894;DHT22;29556;50.846;4.442;2022-08-25T12:36:39;27.20;52.30
43894;DHT22;29556;50.846;4.442;2022-08-25T12:39:22;27.20;52.60
43894;DHT22;29556;50.846;4.442;2022-08-25T12:51:06;27.20;51.40
43894;DHT22;29556;50.846;4.442;2022-08-25T12:54:24;27.20;51.90
43894;DHT22;29556;50.846;4.442;2022-08-25T13:00:28;27.40;51.90
43894;DHT22;29556;50.846;4.442;2022-08-25T13:14:13;27.70;49.10
43894;DHT22;29556;50.846;4.442;2022-08-25T13:16:57;27.70;51.90
43894;DHT22;29556;50.846;4.442;2022-08-25T13:20:27;27.60;53.60
43894;DHT22;29556;50.846;4.442;2022-08-25T13:23:00;27.70;54.30
43894;DHT22;29556;50.846;4.442;2022-08-25T13:25:29;27.60;54.90
43894;DHT22;29556;50.846;4.442;2022-08-25T13:28:02;27.60;54.70
43894;DHT22;29556;50.846;4.442;2022-08-25T13:34:14;27.70;54.70
43894;DHT22;29556;50.846;4.442;2022-08-25T13:40:35;27.80;55.70
43894;DHT22;29556;50.846;4.442;2022-08-25T13:43:58;28.00;55.10
43894;DHT22;29556;50.846;4.442;2022-08-25T13:52:50;28.20;54.40
43894;DHT22;29556;50.846;4.442;2022-08-25T13:55:47;28.30;54.50
43894;DHT22;29556;50.846;4.442;2022-08-25T13:58:33;28.20;54.60
43894;DHT22;29556;50.846;4.442;2022-08-25T14:01:36;28.20;54.60
43894;DHT22;29556;50.846;4.442;2022-08-25T14:04:31;28.30;54.50
43894;DHT22;29556;50.846;4.442;2022-08-25T14:07:28;28.20;54.30
43894;DHT22;29556;50.846;4.442;2022-08-25T14:10:31;28.20;54.50
43894;DHT22;29556;50.846;4.442;2022-08-25T14:13:10;28.20;52.60
43894;DHT22;29556;50.846;4.442;2022-08-25T14:15:39;28.20;52.80
43894;DHT22;29556;50.846;4.442;2022-08-25T14:18:15;28.30;52.10
43894;DHT22;29556;50.846;4.442;2022-08-25T14:20:50;28.40;50.90
43894;DHT22;29556;50.846;4.442;2022-08-25T14:29:38;28.80;51.80
43894;DHT22;29556;50.846;4.442;2022-08-25T14:32:34;28.90;51.00
43894;DHT22;29556;50.846;4.442;2022-08-25T14:35:36;29.00;51.20
43894;DHT22;29556;50.846;4.442;2022-08-25T14:38:07;29.30;48.40
43894;DHT22;29556;50.846;4.442;2022-08-25T14:40:36;29.50;48.30
43894;DHT22;29556;50.846;4.442;2022-08-25T14:43:06;29.70;47.90
43894;DHT22;29556;50.846;4.442;2022-08-25T14:45:50;29.80;48.20
43894;DHT22;29556;50.846;4.442;2022-08-25T14:48:40;30.10;47.30
43894;DHT22;29556;50.846;4.442;2022-08-25T14:51:06;30.10;46.50
43894;DHT22;29556;50.846;4.442;2022-08-25T14:53:33;30.20;46.30
43894;DHT22;29556;50.846;4.442;2022-08-25T14:55:59;30.20;46.10
43894;DHT22;29556;50.846;4.442;2022-08-25T14:58:26;30.10;46.00
43894;DHT22;29556;50.846;4.442;2022-08-25T15:00:53;30.20;46.00
43894;DHT22;29556;50.846;4.442;2022-08-25T15:03:43;30.00;46.10
43894;DHT22;29556;50.846;4.442;2022-08-25T15:06:34;29.80;46.10
43894;DHT22;29556;50.846;4.442;2022-08-25T15:09:01;29.80;46.70
43894;DHT22;29556;50.846;4.442;2022-08-25T15:11:44;29.60;47.50
43894;DHT22;29556;50.846;4.442;2022-08-25T15:14:12;29.60;47.10
43894;DHT22;29556;50.846;4.442;2022-08-25T15:16:50;29.70;46.70
43894;DHT22;29556;50.846;4.442;2022-08-25T15:19:22;29.60;47.20
43894;DHT22;29556;50.846;4.442;2022-08-25T15:21:49;29.60;47.00
43894;DHT22;29556;50.846;4.442;2022-08-25T15:24:16;29.70;47.30
43894;DHT22;29556;50.846;4.442;2022-08-25T15:26:48;29.70;47.50
43894;DHT22;29556;50.846;4.442;2022-08-25T15:29:17;29.90;47.30
43894;DHT22;29556;50.846;4.442;2022-08-25T15:31:45;29.90;47.70
43894;DHT22;29556;50.846;4.442;2022-08-25T15:34:14;29.90;47.30
43894;DHT22;29556;50.846;4.442;2022-08-25T15:36:43;29.90;48.20
43894;DHT22;29556;50.846;4.442;2022-08-25T15:39:10;29.90;49.10
43894;DHT22;29556;50.846;4.442;2022-08-25T15:41:38;29.90;49.70
43894;DHT22;29556;50.846;4.442;2022-08-25T15:44:19;29.80;50.80
43894;DHT22;29556;50.846;4.442;2022-08-25T15:46:50;29.80;51.60
43894;DHT22;29556;50.846;4.442;2022-08-25T15:49:28;29.80;51.90
43894;DHT22;29556;50.846;4.442;2022-08-25T15:51:55;29.80;52.40
43894;DHT22;29556;50.846;4.442;2022-08-25T15:54:40;29.90;52.40
43894;DHT22;29556;50.846;4.442;2022-08-25T15:57:32;29.90;52.10
43894;DHT22;29556;50.846;4.442;2022-08-25T15:59:58;29.70;52.30
43894;DHT22;29556;50.846;4.442;2022-08-25T16:02:25;29.40;53.30
43894;DHT22;29556;50.846;4.442;2022-08-25T16:04:52;29.50;53.40
43894;DHT22;29556;50.846;4.442;2022-08-25T16:07:18;29.50;53.30
43894;DHT22;29556;50.846;4.442;2022-08-25T16:09:45;29.50;54.10
43894;DHT22;29556;50.846;4.442;2022-08-25T16:12:15;29.50;54.00
43894;DHT22;29556;50.846;4.442;2022-08-25T16:14:45;29.50;54.40
43894;DHT22;29556;50.846;4.442;2022-08-25T16:17:11;29.50;55.00
43894;DHT22;29556;50.846;4.442;2022-08-25T16:19:40;29.40;55.30
43894;DHT22;29556;50.846;4.442;2022-08-25T16:22:06;29.30;56.00
43894;DHT22;29556;50.846;4.442;2022-08-25T16:24:34;29.30;56.50
43894;DHT22;29556;50.846;4.442;2022-08-25T16:26:59;29.40;56.50
43894;DHT22;29556;50.846;4.442;2022-08-25T16:29:40;29.30;56.70
43894;DHT22;29556;50.846;4.442;2022-08-25T16:32:07;29.30;56.70
43894;DHT22;29556;50.846;4.442;2022-08-25T16:34:35;29.20;56.60
43894;DHT22;29556;50.846;4.442;2022-08-25T16:37:01;29.20;56.40
43894;DHT22;29556;50.846;4.442;2022-08-25T16:39:28;29.10;55.40
43894;DHT22;29556;50.846;4.442;2022-08-25T16:41:55;28.90;55.80
43894;DHT22;29556;50.846;4.442;2022-08-25T16:44:22;28.90;56.90
43894;DHT22;29556;50.846;4.442;2022-08-25T16:46:52;28.90;57.20
43894;DHT22;29556;50.846;4.442;2022-08-25T16:49:19;28.80;57.40
43894;DHT22;29556;50.846;4.442;2022-08-25T16:51:51;28.70;57.70
43894;DHT22;29556;50.846;4.442;2022-08-25T16:54:18;28.60;57.90
43894;DHT22;29556;50.846;4.442;2022-08-25T16:57:12;28.60;58.00
43894;DHT22;29556;50.846;4.442;2022-08-25T17:00:13;28.50;57.90
43894;DHT22;29556;50.846;4.442;2022-08-25T17:02:40;28.40;57.80
43894;DHT22;29556;50.846;4.442;2022-08-25T17:05:09;28.30;58.30
43894;DHT22;29556;50.846;4.442;2022-08-25T17:07:42;28.20;58.40
43894;DHT22;29556;50.846;4.442;2022-08-25T17:10:45;28.10;58.80
43894;DHT22;29556;50.846;4.442;2022-08-25T17:13:12;28.00;59.10
43894;DHT22;29556;50.846;4.442;2022-08-25T17:15:39;27.80;59.60
43894;DHT22;29556;50.846;4.442;2022-08-25T17:18:06;27.90;59.80
43894;DHT22;29556;50.846;4.442;2022-08-25T17:20:35;27.80;60.20
43894;DHT22;29556;50.846;4.442;2022-08-25T17:23:07;27.50;60.50
43894;DHT22;29556;50.846;4.442;2022-08-25T17:25:39;27.50;60.50
43894;DHT22;29556;50.846;4.442;2022-08-25T17:28:06;27.50;60.70
43894;DHT22;29556;50.846;4.442;2022-08-25T17:30:36;27.30;61.00
43894;DHT22;29556;50.846;4.442;2022-08-25T17:33:03;27.40;61.10
43894;DHT22;29556;50.846;4.442;2022-08-25T17:35:29;27.30;61.40
43894;DHT22;29556;50.846;4.442;2022-08-25T17:37:55;27.20;61.60
43894;DHT22;29556;50.846;4.442;2022-08-25T17:40:21;27.20;62.80
43894;DHT22;29556;50.846;4.442;2022-08-25T17:42:48;27.30;62.10
43894;DHT22;29556;50.846;4.442;2022-08-25T17:45:15;27.10;62.30
43894;DHT22;29556;50.846;4.442;2022-08-25T17:47:44;27.10;62.60
43894;DHT22;29556;50.846;4.442;2022-08-25T17:50:12;26.90;62.60
43894;DHT22;29556;50.846;4.442;2022-08-25T17:52:38;26.90;63.00
43894;DHT22;29556;50.846;4.442;2022-08-25T17:57:41;26.90;63.70
43894;DHT22;29556;50.846;4.442;2022-08-25T18:00:21;26.80;64.20
43894;DHT22;29556;50.846;4.442;2022-08-25T18:02:50;26.80;64.30
43894;DHT22;29556;50.846;4.442;2022-08-25T18:05:17;26.70;64.50
43894;DHT22;29556;50.846;4.442;2022-08-25T18:08:03;26.60;64.80
43894;DHT22;29556;50.846;4.442;2022-08-25T18:10:50;26.60;64.40
43894;DHT22;29556;50.846;4.442;2022-08-25T18:13:18;26.50;64.40
43894;DHT22;29556;50.846;4.442;2022-08-25T18:15:46;26.40;64.60
43894;DHT22;29556;50.846;4.442;2022-08-25T18:20:51;26.20;65.70
43894;DHT22;29556;50.846;4.442;2022-08-25T18:23:16;26.30;66.00
43894;DHT22;29556;50.846;4.442;2022-08-25T18:25:46;26.20;66.00
43894;DHT22;29556;50.846;4.442;2022-08-25T18:28:23;26.10;66.10
43894;DHT22;29556;50.846;4.442;2022-08-25T18:30:49;26.00;66.80
43894;DHT22;29556;50.846;4.442;2022-08-25T18:41:54;25.60;69.80
43894;DHT22;29556;50.846;4.442;2022-08-25T18:44:21;25.60;69.90
43894;DHT22;29556;50.846;4.442;2022-08-25T18:46:50;25.60;69.90
43894;DHT22;29556;50.846;4.442;2022-08-25T18:49:19;25.60;69.70
43894;DHT22;29556;50.846;4.442;2022-08-25T18:51:45;25.50;69.70
43894;DHT22;29556;50.846;4.442;2022-08-25T18:54:15;25.60;69.80
43894;DHT22;29556;50.846;4.442;2022-08-25T18:56:54;25.60;69.80
43894;DHT22;29556;50.846;4.442;2022-08-25T18:59:36;25.40;71.10
43894;DHT22;29556;50.846;4.442;2022-08-25T19:02:06;25.30;71.10
43894;DHT22;29556;50.846;4.442;2022-08-25T19:04:45;25.20;71.70
43894;DHT22;29556;50.846;4.442;2022-08-25T19:07:50;25.00;71.90
43894;DHT22;29556;50.846;4.442;2022-08-25T19:10:42;24.90;72.40
43894;DHT22;29556;50.846;4.442;2022-08-25T19:19:27;24.90;72.60
43894;DHT22;29556;50.846;4.442;2022-08-25T19:25:09;25.00;72.50
43894;DHT22;29556;50.846;4.442;2022-08-25T19:27:42;24.80;72.70
43894;DHT22;29556;50.846;4.442;2022-08-25T19:30:22;24.70;72.80
43894;DHT22;29556;50.846;4.442;2022-08-25T19:32:53;24.70;72.90
43894;DHT22;29556;50.846;4.442;2022-08-25T19:35:22;24.70;72.70
43894;DHT22;29556;50.846;4.442;2022-08-25T19:37:53;24.60;72.80
43894;DHT22;29556;50.846;4.442;2022-08-25T19:49:30;24.40;73.20
43894;DHT22;29556;50.846;4.442;2022-08-25T19:52:13;24.30;73.60
43894;DHT22;29556;50.846;4.442;2022-08-25T19:54:59;24.20;73.60
43894;DHT22;29556;50.846;4.442;2022-08-25T20:00:57;24.20;73.60
43894;DHT22;29556;50.846;4.442;2022-08-25T20:03:24;24.40;73.30
43894;DHT22;29556;50.846;4.442;2022-08-25T20:09:24;24.10;73.80
43894;DHT22;29556;50.846;4.442;2022-08-25T20:11:46;24.00;73.60
43894;DHT22;29556;50.846;4.442;2022-08-25T20:14:32;24.00;74.00
43894;DHT22;29556;50.846;4.442;2022-08-25T20:17:11;23.90;74.30
43894;DHT22;29556;50.846;4.442;2022-08-25T20:19:53;23.90;74.50
43894;DHT22;29556;50.846;4.442;2022-08-25T20:22:37;23.80;74.70
43894;DHT22;29556;50.846;4.442;2022-08-25T20:25:21;23.80;74.70
43894;DHT22;29556;50.846;4.442;2022-08-25T20:27:52;23.70;75.00
43894;DHT22;29556;50.846;4.442;2022-08-25T20:30:26;23.60;75.20
43894;DHT22;29556;50.846;4.442;2022-08-25T20:32:54;23.60;75.00
43894;DHT22;29556;50.846;4.442;2022-08-25T20:35:21;23.70;75.40
43894;DHT22;29556;50.846;4.442;2022-08-25T20:38:07;23.70;74.20
43894;DHT22;29556;50.846;4.442;2022-08-25T20:40:40;23.70;74.40
43894;DHT22;29556;50.846;4.442;2022-08-25T20:43:13;23.70;74.20
43894;DHT22;29556;50.846;4.442;2022-08-25T20:45:44;23.70;73.70
43894;DHT22;29556;50.846;4.442;2022-08-25T20:48:10;23.70;73.60
43894;DHT22;29556;50.846;4.442;2022-08-25T20:50:44;23.70;73.30
43894;DHT22;29556;50.846;4.442;2022-08-25T20:53:10;23.70;73.60